ESCO2: Skeleton Creek at Enid, OK

Data processed at Sat Jan 06 2018 23:03


All information presented herein is the property of the government of the United States of America and may be revised or deleted at any time without prior notice.
Dissemination of this information without the expressed written consent of the Public Affairs Office, Tulsa District U.S. Army Corps of Engineers is strictly prohibited.
These data are gathered electronically and, as presented, have not undergone any form of quality control. These data are not guaranteed to be valid or correct.
Go to home page.
Go to station list.

Downstream station:


Previous Day
Next Day
Current Day
    
SHEF ID:       ESCO2     Skeleton Creek at Enid, OK
STATION TYPE:  

               PRECIP     STAGE  RIV-FLOW  WTR-TEMP   CONDUCT  BAT-LOAD
                   in        ft       cfs         F   umho/cm      volt
              Ccp-Rev   Ccp-Rev   Ccp-Rev   Ccp-Rev   Ccp-Rev   Ccp-Rev
(US/Central)
01/04 00:00      0.00      2.58         6     32.40      1652     12.73
01/04 01:00      0.00      2.58         6     32.29      1663     12.73
01/04 02:00      0.00      2.59         6     33.08      1675     12.73
01/04 03:00      0.00      2.56         5     32.11      1685     12.65
01/04 04:00      0.00      2.55         5     32.00      1690     12.65
01/04 05:00      0.00      2.54         5     31.91      1694     12.65
01/04 06:00      0.00      2.54         5     31.78      1696     12.65
01/04 07:00      0.00      2.54         5     31.93      1698     12.65
01/04 08:00      0.00      2.54         5     31.91      1702     12.65
01/04 09:00      0.00      2.54         5     32.05      1705     12.57
01/04 10:00      0.00      2.53         4     32.67      1706     12.65
01/04 11:00      0.00      2.55         5     33.64      1705     13.29
01/04 12:00      0.00      2.54         5     34.59      1698     13.44
01/04 13:00      0.00      2.56         5     35.22      1651     13.44
01/04 14:00      0.00      2.56         5     35.42      1611     13.44
01/04 15:00      0.00      2.54         5     35.64      1581     13.44
01/04 16:00      0.00      2.58         6     34.45      1575     13.44
01/04 17:00      0.00      2.54         5     32.72      1571     13.37
01/04 18:00      0.00      2.54         5     31.91      1575     13.05
01/04 19:00      0.00      2.57         6     32.04      1577     12.97
01/04 20:00      0.00      2.56         5     31.84      1580     12.89
01/04 21:00      0.00      2.57         6     31.95      1590     12.89
01/04 22:00      0.00      2.55         5     32.00      1599     12.81
01/04 23:00      0.00      2.55         5     31.96      1605     12.81